Time;durP1;ratioP1;P1;durP2;ratioP2;P2;SDS_P1;SDS_P2;PMS_P1;PMS_P2;Temp;Humidity;BMP_temperature;BMP_pressure;BME280_temperature;BME280_humidity;BME280_pressure;Samples;Min_cycle;Max_cycle;Signal;HPM_P1;HPM_P2
2020/12/22 00:00:06;;;;;;;;;136.00;123.75;;;;;;;;4998883;28;9542;-65
2020/12/22 00:02:32;;;;;;;;;144.50;127.75;;;;;;;;5001392;28;8977;-65
2020/12/22 00:04:58;;;;;;;;;136.50;124.75;;;;;;;;4999796;28;8944;-65
2020/12/22 00:07:23;;;;;;;;;132.75;115.00;;;;;;;;4999872;28;8841;-65
2020/12/22 00:09:49;;;;;;;;;131.50;115.75;;;;;;;;5000787;28;9705;-67
2020/12/22 00:12:16;;;;;;;;;127.00;119.00;;;;;;;;4998768;28;8897;-66
2020/12/22 00:14:42;;;;;;;;;125.25;107.25;;;;;;;;5001656;28;8842;-65
2020/12/22 00:17:09;;;;;;;;;132.25;116.25;;;;;;;;4994248;28;8860;-66
2020/12/22 00:19:35;;;;;;;;;129.50;118.25;;;;;;;;5001488;28;8961;-66
2020/12/22 00:22:01;;;;;;;;;134.25;118.00;;;;;;;;4999115;28;8843;-65
2020/12/22 00:24:27;;;;;;;;;122.50;108.00;;;;;;;;5000415;28;8971;-66
2020/12/22 00:26:53;;;;;;;;;118.50;108.00;;;;;;;;5000125;28;8861;-66
2020/12/22 00:29:20;;;;;;;;;135.50;121.75;;;;;;;;4999097;28;8909;-67
2020/12/22 00:31:45;;;;;;;;;114.25;109.75;;;;;;;;5000930;28;8847;-66
2020/12/22 00:34:12;;;;;;;;;124.75;110.75;;;;;;;;5001688;28;8846;-66
2020/12/22 00:36:38;;;;;;;;;124.25;111.75;;;;;;;;4997794;28;8849;-67
2020/12/22 00:39:04;;;;;;;;;114.25;101.50;;;;;;;;5004745;28;8941;-67
2020/12/22 00:41:30;;;;;;;;;124.25;112.75;;;;;;;;5003149;28;8905;-67
2020/12/22 00:43:56;;;;;;;;;120.25;111.00;;;;;;;;5003336;28;8872;-66
2020/12/22 00:46:22;;;;;;;;;117.00;108.75;;;;;;;;5003896;28;9048;-65
2020/12/22 00:48:48;;;;;;;;;114.00;101.50;;;;;;;;5001815;28;8853;-66
2020/12/22 00:51:20;;;;;;;;;95.00;83.75;;;;;;;;5004790;28;8873;-66
2020/12/22 00:53:46;;;;;;;;;93.50;82.50;;;;;;;;5001809;28;8853;-65
2020/12/22 00:56:12;;;;;;;;;94.00;80.25;;;;;;;;5004927;28;8949;-66
2020/12/22 00:58:38;;;;;;;;;98.50;89.25;;;;;;;;5001547;28;8862;-66
2020/12/22 01:01:04;;;;;;;;;94.75;79.00;;;;;;;;5001390;28;8833;-66
2020/12/22 01:03:30;;;;;;;;;93.00;76.75;;;;;;;;5003851;28;8969;-66
2020/12/22 01:05:56;;;;;;;;;86.00;69.00;;;;;;;;5002458;28;8855;-67
2020/12/22 01:08:23;;;;;;;;;82.75;66.25;;;;;;;;5002665;28;8996;-67
2020/12/22 01:10:49;;;;;;;;;83.50;63.75;;;;;;;;5003479;28;8869;-66
2020/12/22 01:13:15;;;;;;;;;81.25;64.25;;;;;;;;5001595;28;8837;-67
2020/12/22 01:15:40;;;;;;;;;78.25;62.00;;;;;;;;5004320;28;8878;-67
2020/12/22 01:18:06;;;;;;;;;77.00;59.50;;;;;;;;5001125;28;8849;-67
2020/12/22 01:20:32;;;;;;;;;76.00;59.25;;;;;;;;5003633;28;8862;-67
2020/12/22 01:22:58;;;;;;;;;74.25;58.50;;;;;;;;5001990;28;8878;-67
2020/12/22 01:25:25;;;;;;;;;80.25;60.75;;;;;;;;5002593;28;8853;-66
2020/12/22 01:27:51;;;;;;;;;76.50;59.25;;;;;;;;5002670;28;8961;-66
2020/12/22 01:30:17;;;;;;;;;79.50;59.75;;;;;;;;5001784;28;8861;-66
2020/12/22 01:32:45;;;;;;;;;77.25;59.25;;;;;;;;5003932;28;8969;-66
2020/12/22 01:35:10;;;;;;;;;75.25;61.00;;;;;;;;5000789;28;8861;-66
2020/12/22 01:37:36;;;;;;;;;76.25;59.50;;;;;;;;4996748;28;8837;-66
2020/12/22 01:40:03;;;;;;;;;77.75;61.50;;;;;;;;5003495;28;8942;-66
2020/12/22 01:42:29;;;;;;;;;78.75;61.00;;;;;;;;5001540;28;8862;-67
2020/12/22 01:44:55;;;;;;;;;58.00;43.25;;;;;;;;5002488;28;8869;-67
2020/12/22 01:47:22;;;;;;;;;83.75;65.75;;;;;;;;5002384;28;8863;-66
2020/12/22 01:49:48;;;;;;;;;93.00;77.25;;;;;;;;5001082;28;8867;-67
2020/12/22 01:52:13;;;;;;;;;92.75;77.75;;;;;;;;5003367;28;8850;-66
2020/12/22 01:54:39;;;;;;;;;78.25;63.25;;;;;;;;5000416;28;8864;-66
2020/12/22 01:57:10;;;;;;;;;78.25;63.25;;;;;;;;5003557;28;9594;-66
2020/12/22 01:59:36;;;;;;;;;78.50;63.50;;;;;;;;5000661;28;8948;-66
2020/12/22 02:02:02;;;;;;;;;78.00;59.00;;;;;;;;5002914;28;8843;-65
2020/12/22 02:04:28;;;;;;;;;79.00;59.50;;;;;;;;5001401;28;8873;-66
2020/12/22 02:06:55;;;;;;;;;78.00;62.00;;;;;;;;5001884;28;9594;-66
2020/12/22 02:09:21;;;;;;;;;85.75;69.75;;;;;;;;5002256;28;8864;-65
2020/12/22 02:11:47;;;;;;;;;79.00;63.75;;;;;;;;5000760;28;8861;-65
2020/12/22 02:14:13;;;;;;;;;78.50;63.00;;;;;;;;5003412;28;8961;-66
2020/12/22 02:16:40;;;;;;;;;75.50;61.25;;;;;;;;5000121;28;8853;-66
2020/12/22 02:19:09;;;;;;;;;78.25;61.00;;;;;;;;5000045;28;8849;-66
2020/12/22 02:21:35;;;;;;;;;80.00;62.00;;;;;;;;5003368;28;8977;-66
2020/12/22 02:24:01;;;;;;;;;85.75;70.25;;;;;;;;5000139;28;8877;-67
2020/12/22 02:26:27;;;;;;;;;82.75;64.25;;;;;;;;5001887;28;8867;-66
2020/12/22 02:28:54;;;;;;;;;90.00;73.25;;;;;;;;5001173;28;8869;-65
2020/12/22 02:31:21;;;;;;;;;96.50;85.50;;;;;;;;5001169;28;8845;-66
2020/12/22 02:33:47;;;;;;;;;96.50;91.50;;;;;;;;5001841;28;8855;-66
2020/12/22 02:36:14;;;;;;;;;111.75;100.25;;;;;;;;5000111;28;9726;-66
2020/12/22 02:38:41;;;;;;;;;107.75;97.75;;;;;;;;5002627;28;9569;-66
2020/12/22 02:41:07;;;;;;;;;115.25;105.50;;;;;;;;4999745;28;8841;-68
2020/12/22 02:43:33;;;;;;;;;111.00;99.50;;;;;;;;5002883;28;8831;-67
2020/12/22 02:45:59;;;;;;;;;116.00;104.75;;;;;;;;5000131;28;8917;-67
2020/12/22 02:48:25;;;;;;;;;116.75;110.00;;;;;;;;5001642;28;8845;-67
2020/12/22 02:50:51;;;;;;;;;125.00;107.25;;;;;;;;5001165;28;8831;-67
2020/12/22 02:53:17;;;;;;;;;123.50;111.25;;;;;;;;5000489;28;8895;-67
2020/12/22 02:55:44;;;;;;;;;118.00;108.25;;;;;;;;5002167;28;8847;-66
2020/12/22 02:58:10;;;;;;;;;127.75;111.25;;;;;;;;4998985;28;9093;-66
2020/12/22 03:00:36;;;;;;;;;110.50;102.50;;;;;;;;5002556;28;9579;-66
2020/12/22 03:03:02;;;;;;;;;118.75;108.00;;;;;;;;4999581;28;8971;-67
2020/12/22 03:05:28;;;;;;;;;117.25;103.25;;;;;;;;5001600;28;8865;-66
2020/12/22 03:07:54;;;;;;;;;111.25;103.25;;;;;;;;5000461;28;8827;-67
2020/12/22 03:10:20;;;;;;;;;113.25;100.00;;;;;;;;5000607;28;8875;-67
2020/12/22 03:12:47;;;;;;;;;113.00;101.50;;;;;;;;5001174;28;8992;-66
2020/12/22 03:15:13;;;;;;;;;107.75;96.50;;;;;;;;4999547;28;8996;-66
2020/12/22 03:17:39;;;;;;;;;117.75;102.00;;;;;;;;5002468;28;8839;-66
2020/12/22 03:20:06;;;;;;;;;121.50;109.75;;;;;;;;4999166;28;8849;-66
2020/12/22 03:22:32;;;;;;;;;113.75;103.75;;;;;;;;5002188;28;8851;-67
2020/12/22 03:24:58;;;;;;;;;118.00;104.00;;;;;;;;4999579;28;9789;-67
2020/12/22 03:27:24;;;;;;;;;116.00;106.25;;;;;;;;5000680;28;8868;-66
2020/12/22 03:29:51;;;;;;;;;118.75;106.25;;;;;;;;5000595;28;8862;-67
2020/12/22 03:32:17;;;;;;;;;111.50;101.50;;;;;;;;4999901;28;8968;-66
2020/12/22 03:34:42;;;;;;;;;119.25;106.00;;;;;;;;5001306;28;8850;-65
2020/12/22 03:37:09;;;;;;;;;106.00;95.50;;;;;;;;4998833;28;8849;-66
2020/12/22 03:39:35;;;;;;;;;112.00;102.50;;;;;;;;4994905;28;8944;-66
2020/12/22 03:42:01;;;;;;;;;129.50;117.00;;;;;;;;5001368;28;8977;-66
2020/12/22 03:44:27;;;;;;;;;126.00;111.75;;;;;;;;4999808;28;9563;-65
2020/12/22 03:46:53;;;;;;;;;131.00;118.25;;;;;;;;5000314;28;8984;-66
2020/12/22 03:49:19;;;;;;;;;136.00;122.00;;;;;;;;5000604;28;9044;-67
2020/12/22 03:51:46;;;;;;;;;120.25;110.25;;;;;;;;4999589;28;8879;-66
2020/12/22 03:54:12;;;;;;;;;125.75;112.25;;;;;;;;5001497;28;8997;-66
2020/12/22 03:56:38;;;;;;;;;126.00;115.00;;;;;;;;4998769;28;9705;-66
2020/12/22 03:59:04;;;;;;;;;137.50;125.00;;;;;;;;5001614;28;8864;-66
2020/12/22 04:01:30;;;;;;;;;124.25;115.75;;;;;;;;4999222;28;8865;-66
2020/12/22 04:03:56;;;;;;;;;129.75;114.25;;;;;;;;5000497;28;8901;-66
2020/12/22 04:06:22;;;;;;;;;130.00;121.25;;;;;;;;5000613;28;9047;-66
2020/12/22 04:08:51;;;;;;;;;125.75;114.25;;;;;;;;4999951;28;8963;-66
2020/12/22 04:11:17;;;;;;;;;125.50;114.25;;;;;;;;5004678;28;8960;-66
2020/12/22 04:13:43;;;;;;;;;143.00;131.50;;;;;;;;5002713;28;9640;-66
2020/12/22 04:16:09;;;;;;;;;141.50;122.75;;;;;;;;5005606;28;8957;-65
2020/12/22 04:18:35;;;;;;;;;139.00;126.00;;;;;;;;5002506;28;9621;-66
2020/12/22 04:21:02;;;;;;;;;143.50;125.00;;;;;;;;5004929;28;8858;-65
2020/12/22 04:23:28;;;;;;;;;139.00;122.75;;;;;;;;5002837;28;8900;-66
2020/12/22 04:25:54;;;;;;;;;127.00;119.50;;;;;;;;5003826;28;8881;-66
2020/12/22 04:28:20;;;;;;;;;122.00;104.50;;;;;;;;5003834;28;8961;-65
2020/12/22 04:30:46;;;;;;;;;136.50;116.25;;;;;;;;5002859;28;8865;-66
2020/12/22 04:33:12;;;;;;;;;133.00;118.25;;;;;;;;5004997;28;8957;-65
2020/12/22 04:35:39;;;;;;;;;133.25;116.00;;;;;;;;5002106;28;9708;-66
2020/12/22 04:38:05;;;;;;;;;131.50;117.75;;;;;;;;5002043;28;8929;-66
2020/12/22 04:40:32;;;;;;;;;119.50;112.50;;;;;;;;5005222;28;8854;-66
2020/12/22 04:42:58;;;;;;;;;99.00;92.25;;;;;;;;5002671;28;8961;-66
2020/12/22 04:45:24;;;;;;;;;136.00;113.25;;;;;;;;5003949;28;9019;-66
2020/12/22 04:47:51;;;;;;;;;124.25;114.75;;;;;;;;5003275;28;9662;-66
2020/12/22 04:50:17;;;;;;;;;123.50;114.50;;;;;;;;5003096;28;8853;-65
2020/12/22 04:52:43;;;;;;;;;133.00;119.00;;;;;;;;5004060;28;8850;-66
2020/12/22 04:55:11;;;;;;;;;96.75;71.00;;;;;;;;5002011;28;8849;-66
2020/12/22 04:57:42;;;;;;;;;129.50;116.50;;;;;;;;5005098;28;8863;-66
2020/12/22 05:00:07;;;;;;;;;128.75;114.25;;;;;;;;5001799;28;8968;-66
2020/12/22 05:02:37;;;;;;;;;114.00;106.50;;;;;;;;5005086;28;8973;-67
2020/12/22 05:05:03;;;;;;;;;126.25;118.75;;;;;;;;5001388;28;8974;-66
2020/12/22 05:07:29;;;;;;;;;134.00;116.50;;;;;;;;5004210;28;8970;-66
2020/12/22 05:09:55;;;;;;;;;114.50;107.25;;;;;;;;5002627;28;8851;-66
2020/12/22 05:12:21;;;;;;;;;121.00;110.25;;;;;;;;5002858;28;8861;-66
2020/12/22 05:14:47;;;;;;;;;116.25;105.25;;;;;;;;5003414;28;8872;-66
2020/12/22 05:17:14;;;;;;;;;121.50;108.75;;;;;;;;5001947;28;8857;-66
2020/12/22 05:19:41;;;;;;;;;128.75;111.25;;;;;;;;5003751;28;8913;-66
2020/12/22 05:22:08;;;;;;;;;121.00;110.25;;;;;;;;5001218;28;8849;-65
2020/12/22 05:24:35;;;;;;;;;117.75;108.75;;;;;;;;5001120;28;8833;-66
2020/12/22 05:27:01;;;;;;;;;126.50;109.75;;;;;;;;5003729;28;8912;-65
2020/12/22 05:29:28;;;;;;;;;120.25;106.50;;;;;;;;5001766;28;8833;-66
2020/12/22 05:31:54;;;;;;;;;116.25;103.50;;;;;;;;5002753;28;8883;-66
2020/12/22 05:34:20;;;;;;;;;107.50;94.00;;;;;;;;5002636;28;8989;-66
2020/12/22 05:36:47;;;;;;;;;98.75;90.50;;;;;;;;5001912;28;8954;-68
2020/12/22 05:39:13;;;;;;;;;101.25;89.75;;;;;;;;5003568;28;9001;-66
2020/12/22 05:41:39;;;;;;;;;116.25;100.75;;;;;;;;5000807;28;8964;-66
2020/12/22 05:44:06;;;;;;;;;100.25;92.00;;;;;;;;5004276;28;8862;-66
2020/12/22 05:46:34;;;;;;;;;111.25;94.00;;;;;;;;5000914;28;8892;-66
2020/12/22 05:49:01;;;;;;;;;102.25;89.75;;;;;;;;5003142;28;8843;-66
2020/12/22 05:51:27;;;;;;;;;99.50;89.75;;;;;;;;5001674;28;8834;-64
2020/12/22 05:53:54;;;;;;;;;102.50;94.00;;;;;;;;5002066;28;8871;-65
2020/12/22 17:02:52;;;;;;;;;40.67;36.67;;;;;;;;5104949;27;13489;-75
2020/12/22 17:05:17;;;;;;;;;34.33;30.33;;;;;;;;5087384;28;8840;-70
2020/12/22 17:07:43;;;;;;;;;28.67;28.00;;;;;;;;5090900;28;11686;-71
2020/12/22 17:10:09;;;;;;;;;31.00;29.67;;;;;;;;5087191;28;8842;-72
2020/12/22 17:12:35;;;;;;;;;32.00;29.33;;;;;;;;5089277;28;8858;-70
2020/12/22 17:15:01;;;;;;;;;32.75;29.25;;;;;;;;5087711;28;8854;-72
2020/12/22 17:17:30;;;;;;;;;31.25;27.25;;;;;;;;5087974;28;8888;-69
2020/12/22 17:19:57;;;;;;;;;32.75;29.75;;;;;;;;5092309;28;8846;-73
2020/12/22 17:22:23;;;;;;;;;30.00;27.50;;;;;;;;5090263;28;11599;-70
2020/12/22 17:24:49;;;;;;;;;34.50;29.50;;;;;;;;5096682;28;11537;-74
2020/12/22 17:27:15;;;;;;;;;43.00;35.00;;;;;;;;5094272;28;8971;-71
2020/12/22 17:29:41;;;;;;;;;33.50;31.00;;;;;;;;5096266;28;8855;-73
2020/12/22 17:32:08;;;;;;;;;26.50;26.00;;;;;;;;5095281;28;11580;-76
2020/12/22 17:34:34;;;;;;;;;36.75;31.75;;;;;;;;5091721;28;8951;-73
2020/12/22 17:37:00;;;;;;;;;37.00;36.00;;;;;;;;5086657;28;11567;-73
2020/12/22 17:39:26;;;;;;;;;33.75;32.00;;;;;;;;5085797;28;11630;-70
2020/12/22 17:41:52;;;;;;;;;37.75;34.25;;;;;;;;5090212;28;11654;-75
2020/12/22 17:44:18;;;;;;;;;36.50;33.50;;;;;;;;5092147;28;8969;-73
2020/12/22 17:46:44;;;;;;;;;32.50;32.00;;;;;;;;5093883;28;8887;-73
2020/12/22 17:49:10;;;;;;;;;37.50;32.75;;;;;;;;5092641;28;8842;-73
2020/12/22 17:51:36;;;;;;;;;38.75;33.00;;;;;;;;5093532;28;8858;-71
2020/12/22 17:54:03;;;;;;;;;40.00;37.75;;;;;;;;5093048;28;8868;-74
2020/12/22 17:56:29;;;;;;;;;34.00;31.50;;;;;;;;5093788;28;8839;-71
2020/12/22 17:58:55;;;;;;;;;37.67;35.00;;;;;;;;5096926;28;11543;-72
2020/12/22 18:01:21;;;;;;;;;41.67;38.33;;;;;;;;5092757;28;8893;-69
2020/12/22 18:03:47;;;;;;;;;36.67;35.67;;;;;;;;5096559;28;8838;-71
2020/12/22 18:06:13;;;;;;;;;42.67;37.00;;;;;;;;5093867;28;11582;-72
2020/12/22 18:08:39;;;;;;;;;49.00;38.33;;;;;;;;5094700;28;8854;-72
2020/12/22 18:11:06;;;;;;;;;44.33;38.00;;;;;;;;5094858;28;8836;-71
2020/12/22 18:13:32;;;;;;;;;41.33;38.00;;;;;;;;5084060;28;8867;-78
2020/12/22 18:15:58;;;;;;;;;51.67;39.67;;;;;;;;5080330;28;8862;-70
2020/12/22 18:18:25;;;;;;;;;39.00;37.67;;;;;;;;5083861;28;8938;-74
2020/12/22 18:20:52;;;;;;;;;38.67;33.33;;;;;;;;5079735;28;8850;-70
2020/12/22 18:23:18;;;;;;;;;46.33;39.00;;;;;;;;5079258;28;11729;-69
2020/12/22 18:25:44;;;;;;;;;41.00;36.00;;;;;;;;5081527;28;11567;-71
2020/12/22 18:28:11;;;;;;;;;49.33;41.00;;;;;;;;5080478;28;8848;-75
2020/12/22 18:30:36;;;;;;;;;41.00;37.33;;;;;;;;5080465;28;8958;-78
2020/12/22 18:33:03;;;;;;;;;34.67;33.33;;;;;;;;5081479;28;11594;-75
2020/12/22 18:35:29;;;;;;;;;48.33;38.67;;;;;;;;5081943;28;8963;-70
2020/12/22 18:37:56;;;;;;;;;38.33;37.33;;;;;;;;5081584;28;8831;-71
2020/12/22 18:40:21;;;;;;;;;35.00;33.00;;;;;;;;5078521;28;8935;-71
2020/12/22 18:42:48;;;;;;;;;47.00;39.00;;;;;;;;5081757;28;11689;-74
2020/12/22 18:45:15;;;;;;;;;43.67;37.33;;;;;;;;5080078;28;8839;-71
2020/12/22 18:47:41;;;;;;;;;45.67;39.00;;;;;;;;5080952;28;12372;-71
2020/12/22 18:50:08;;;;;;;;;54.67;45.00;;;;;;;;5080499;28;8897;-69
2020/12/22 18:52:33;;;;;;;;;51.00;42.00;;;;;;;;5022410;28;10387;-71
2020/12/22 18:54:59;;;;;;;;;46.33;39.67;;;;;;;;5041336;28;8844;-75
2020/12/22 18:57:25;;;;;;;;;49.00;42.33;;;;;;;;5037158;28;8872;-70
2020/12/22 18:59:52;;;;;;;;;52.67;42.33;;;;;;;;5038400;28;8869;-73
2020/12/22 19:02:19;;;;;;;;;47.00;42.00;;;;;;;;5038718;28;9662;-69
2020/12/22 19:04:45;;;;;;;;;42.67;35.33;;;;;;;;5036535;28;8852;-69
2020/12/22 19:07:11;;;;;;;;;46.67;39.67;;;;;;;;5032126;28;8902;-70
2020/12/22 19:09:37;;;;;;;;;48.00;38.67;;;;;;;;5032771;28;8971;-69
2020/12/22 19:12:03;;;;;;;;;39.00;38.00;;;;;;;;5036697;28;11593;-69
2020/12/22 19:14:29;;;;;;;;;40.00;37.00;;;;;;;;5038513;28;8970;-69
2020/12/22 19:16:55;;;;;;;;;38.50;34.50;;;;;;;;4953541;28;11640;-68
2020/12/22 19:19:22;;;;;;;;;39.75;34.75;;;;;;;;5031361;28;10885;-69
2020/12/22 19:21:48;;;;;;;;;34.25;26.75;;;;;;;;5049885;28;8822;-69
2020/12/22 19:24:14;;;;;;;;;37.50;32.00;;;;;;;;5047532;28;11602;-69
2020/12/22 19:26:40;;;;;;;;;39.50;34.25;;;;;;;;5049716;28;8841;-71
2020/12/22 19:29:06;;;;;;;;;27.25;27.25;;;;;;;;5049893;28;8846;-71
2020/12/22 19:31:32;;;;;;;;;45.25;35.25;;;;;;;;5049845;28;8841;-70
2020/12/22 19:33:59;;;;;;;;;38.25;35.25;;;;;;;;5048722;28;11616;-69
2020/12/22 19:36:26;;;;;;;;;40.50;36.25;;;;;;;;5048776;28;11614;-70
2020/12/22 19:38:52;;;;;;;;;43.00;39.00;;;;;;;;5049210;28;12589;-72
2020/12/22 19:41:18;;;;;;;;;28.33;24.33;;;;;;;;5048250;28;11756;-73
2020/12/22 19:43:44;;;;;;;;;37.00;33.00;;;;;;;;5049097;28;11665;-74
2020/12/22 19:46:12;;;;;;;;;43.33;38.00;;;;;;;;5047628;28;8861;-73
2020/12/22 19:48:38;;;;;;;;;47.33;40.67;;;;;;;;5049065;28;8980;-71
2020/12/22 19:51:09;;;;;;;;;47.33;40.00;;;;;;;;5048214;28;11683;-71
2020/12/22 19:53:36;;;;;;;;;53.00;41.00;;;;;;;;5048726;28;8960;-71
2020/12/22 19:56:02;;;;;;;;;46.67;39.00;;;;;;;;5048266;28;11758;-72
2020/12/22 19:58:28;;;;;;;;;44.50;39.00;;;;;;;;5049326;28;11685;-75
2020/12/22 20:00:54;;;;;;;;;45.67;38.00;;;;;;;;5048306;28;11582;-74
2020/12/22 20:03:20;;;;;;;;;46.67;40.00;;;;;;;;5048768;28;8927;-73
2020/12/22 20:05:46;;;;;;;;;45.67;41.00;;;;;;;;5049237;28;8873;-74
2020/12/22 20:08:12;;;;;;;;;52.67;40.67;;;;;;;;5048200;28;8850;-73
2020/12/22 20:10:40;;;;;;;;;54.67;42.00;;;;;;;;5049275;28;8980;-76
2020/12/22 20:13:06;;;;;;;;;52.67;41.33;;;;;;;;5048486;28;8817;-74
2020/12/22 20:15:33;;;;;;;;;31.00;28.33;;;;;;;;5048772;28;11631;-74
2020/12/22 20:17:59;;;;;;;;;49.00;43.00;;;;;;;;5048206;28;8860;-74
2020/12/22 20:20:25;;;;;;;;;53.67;45.33;;;;;;;;5049000;28;11598;-75
2020/12/22 20:22:51;;;;;;;;;58.00;46.67;;;;;;;;5048905;28;8842;-75
2020/12/22 20:25:18;;;;;;;;;51.67;42.33;;;;;;;;5048273;28;8884;-76
2020/12/22 20:27:45;;;;;;;;;55.33;45.67;;;;;;;;5048732;28;8850;-74
2020/12/22 20:30:11;;;;;;;;;52.00;45.00;;;;;;;;5048088;28;8853;-75
2020/12/22 20:32:37;;;;;;;;;57.33;45.00;;;;;;;;5048599;28;8934;-74
2020/12/22 20:35:03;;;;;;;;;62.00;49.00;;;;;;;;5047651;28;8826;-71
2020/12/22 20:37:28;;;;;;;;;52.33;42.67;;;;;;;;5048230;28;8957;-72
2020/12/22 20:39:54;;;;;;;;;55.00;43.00;;;;;;;;5048251;28;8872;-74
2020/12/22 20:42:20;;;;;;;;;51.00;42.33;;;;;;;;5048914;28;8852;-73
2020/12/22 20:44:50;;;;;;;;;55.00;43.33;;;;;;;;5048142;28;8872;-71
2020/12/22 20:47:16;;;;;;;;;55.33;43.00;;;;;;;;5047434;28;8918;-73
2020/12/22 20:49:42;;;;;;;;;53.00;42.33;;;;;;;;5048345;28;8853;-72
2020/12/22 20:52:08;;;;;;;;;49.33;39.00;;;;;;;;5047386;28;8829;-73
2020/12/22 20:54:34;;;;;;;;;53.00;42.33;;;;;;;;5048261;28;11585;-71
2020/12/22 20:57:00;;;;;;;;;54.67;45.33;;;;;;;;5047500;28;11591;-72
2020/12/22 20:59:26;;;;;;;;;54.33;44.33;;;;;;;;5048486;28;8846;-74
2020/12/22 21:01:53;;;;;;;;;55.00;44.67;;;;;;;;5044281;28;8902;-74
2020/12/22 21:04:19;;;;;;;;;53.00;43.33;;;;;;;;5048218;28;8838;-74
2020/12/22 21:06:48;;;;;;;;;52.67;42.33;;;;;;;;5048053;28;8887;-76
2020/12/22 21:09:14;;;;;;;;;52.33;42.00;;;;;;;;5046796;28;9515;-76
2020/12/22 21:11:40;;;;;;;;;55.33;45.33;;;;;;;;5047755;28;11606;-75
2020/12/22 21:14:06;;;;;;;;;47.67;41.00;;;;;;;;5047466;28;8868;-75
2020/12/22 21:16:32;;;;;;;;;51.33;40.00;;;;;;;;5046888;28;8845;-74
2020/12/22 21:18:59;;;;;;;;;47.67;39.00;;;;;;;;5046295;28;9550;-74
2020/12/22 21:21:25;;;;;;;;;48.33;42.00;;;;;;;;5047009;28;8871;-72
2020/12/22 21:23:51;;;;;;;;;50.00;40.33;;;;;;;;5045956;28;11832;-73
2020/12/22 21:26:17;;;;;;;;;44.67;36.00;;;;;;;;5046233;28;11740;-72
2020/12/22 21:28:44;;;;;;;;;49.00;39.67;;;;;;;;5047821;28;8849;-72
2020/12/22 21:31:12;;;;;;;;;48.67;40.00;;;;;;;;5047362;28;8841;-72
2020/12/22 21:33:38;;;;;;;;;49.67;41.00;;;;;;;;5049133;28;11707;-73
2020/12/22 21:36:07;;;;;;;;;49.67;41.00;;;;;;;;5048926;28;11629;-74
2020/12/22 21:38:33;;;;;;;;;53.67;45.00;;;;;;;;5049010;28;8865;-73
2020/12/22 21:40:59;;;;;;;;;52.67;42.00;;;;;;;;5048746;28;11584;-78
2020/12/22 21:43:25;;;;;;;;;48.67;41.33;;;;;;;;5049461;28;8859;-74
2020/12/22 21:45:51;;;;;;;;;45.00;39.00;;;;;;;;5049149;28;8907;-75
2020/12/22 21:48:17;;;;;;;;;47.67;39.00;;;;;;;;5050420;28;9701;-74
2020/12/22 21:50:43;;;;;;;;;47.00;41.00;;;;;;;;5052893;28;8853;-74
2020/12/22 21:53:09;;;;;;;;;53.00;42.33;;;;;;;;5052587;28;8842;-74
2020/12/22 21:55:35;;;;;;;;;44.00;39.33;;;;;;;;5053070;28;8976;-74
2020/12/22 21:58:01;;;;;;;;;46.33;38.33;;;;;;;;5052454;28;11598;-76
2020/12/22 22:00:28;;;;;;;;;55.25;42.00;;;;;;;;5052450;28;8841;-73
2020/12/22 22:02:55;;;;;;;;;43.33;39.00;;;;;;;;5052385;28;8900;-74
2020/12/22 22:05:21;;;;;;;;;45.67;39.00;;;;;;;;5048315;28;11689;-74
2020/12/22 22:07:47;;;;;;;;;46.00;39.25;;;;;;;;5052424;28;11588;-74
2020/12/22 22:10:14;;;;;;;;;50.00;40.67;;;;;;;;5052562;28;8861;-74
2020/12/22 22:12:40;;;;;;;;;48.00;39.33;;;;;;;;5052389;28;11704;-73
2020/12/22 22:15:06;;;;;;;;;56.33;44.33;;;;;;;;5052063;28;11610;-73
2020/12/22 22:17:32;;;;;;;;;42.00;37.00;;;;;;;;5052788;28;8924;-75
2020/12/22 22:19:58;;;;;;;;;47.33;38.67;;;;;;;;5052152;28;8940;-71
2020/12/22 22:22:24;;;;;;;;;54.00;43.33;;;;;;;;5006640;28;10653;-79
2020/12/22 22:24:50;;;;;;;;;43.75;39.00;;;;;;;;5005631;28;11588;-74
2020/12/22 22:27:17;;;;;;;;;48.25;40.50;;;;;;;;5024349;28;11100;-73
2020/12/22 22:29:43;;;;;;;;;40.25;38.00;;;;;;;;5062760;28;8864;-74
2020/12/22 22:32:09;;;;;;;;;38.25;35.00;;;;;;;;5057980;28;12340;-73
2020/12/22 22:34:34;;;;;;;;;40.25;38.75;;;;;;;;5061427;28;8965;-73
2020/12/22 22:37:00;;;;;;;;;47.50;36.50;;;;;;;;5062900;28;12295;-73
2020/12/22 22:39:26;;;;;;;;;40.00;37.50;;;;;;;;5060566;28;8956;-74
2020/12/22 22:41:52;;;;;;;;;45.50;40.50;;;;;;;;5063652;28;11666;-74
2020/12/22 22:44:20;;;;;;;;;47.50;40.00;;;;;;;;5060591;28;11650;-73
2020/12/22 22:46:49;;;;;;;;;41.50;39.00;;;;;;;;5063186;28;8851;-73
2020/12/22 22:49:15;;;;;;;;;37.50;35.25;;;;;;;;5060522;28;11713;-73
2020/12/22 22:51:41;;;;;;;;;41.25;38.25;;;;;;;;5062427;28;11593;-73
2020/12/22 22:54:07;;;;;;;;;41.50;39.00;;;;;;;;5061781;28;9610;-73
2020/12/22 22:56:33;;;;;;;;;42.50;36.75;;;;;;;;5060874;28;8980;-73
2020/12/22 22:58:59;;;;;;;;;38.50;37.25;;;;;;;;5062968;28;8835;-74
2020/12/22 23:01:26;;;;;;;;;45.25;37.50;;;;;;;;5058897;28;8838;-74
2020/12/22 23:03:52;;;;;;;;;43.75;37.25;;;;;;;;5055976;28;8930;-74
2020/12/22 23:06:18;;;;;;;;;32.75;32.50;;;;;;;;5061463;28;11734;-73
2020/12/22 23:08:44;;;;;;;;;33.75;29.50;;;;;;;;5060431;28;11553;-73
2020/12/22 23:11:10;;;;;;;;;33.50;32.75;;;;;;;;5061448;28;8860;-73
2020/12/22 23:13:37;;;;;;;;;41.00;36.00;;;;;;;;5060324;28;9033;-74
2020/12/22 23:16:04;;;;;;;;;39.75;37.00;;;;;;;;5060441;28;11704;-74
2020/12/22 23:18:31;;;;;;;;;40.00;35.75;;;;;;;;5062538;28;11692;-73
2020/12/22 23:20:57;;;;;;;;;40.00;36.00;;;;;;;;5059714;28;11579;-73
2020/12/22 23:23:23;;;;;;;;;42.25;36.00;;;;;;;;5062960;28;11551;-74
2020/12/22 23:25:49;;;;;;;;;40.25;36.00;;;;;;;;5062840;28;11699;-74
2020/12/22 23:28:17;;;;;;;;;41.50;35.75;;;;;;;;5059771;28;11674;-72
2020/12/22 23:30:43;;;;;;;;;41.25;37.75;;;;;;;;5061756;28;8894;-74
2020/12/22 23:33:09;;;;;;;;;44.25;36.50;;;;;;;;5060619;28;11570;-74
2020/12/22 23:35:36;;;;;;;;;42.75;38.25;;;;;;;;5060940;28;8837;-74
2020/12/22 23:38:02;;;;;;;;;53.25;38.75;;;;;;;;5061336;28;8958;-74
2020/12/22 23:40:27;;;;;;;;;45.75;40.25;;;;;;;;5059615;28;11579;-74
2020/12/22 23:42:54;;;;;;;;;53.00;39.25;;;;;;;;5062426;28;8853;-76
2020/12/22 23:45:20;;;;;;;;;39.50;34.00;;;;;;;;5055357;28;8853;-75
2020/12/22 23:47:46;;;;;;;;;42.75;36.00;;;;;;;;5062593;28;12409;-75
2020/12/22 23:50:12;;;;;;;;;49.00;42.50;;;;;;;;5059973;28;8861;-74
2020/12/22 23:52:39;;;;;;;;;49.33;39.00;;;;;;;;5061302;28;8866;-74
2020/12/22 23:55:05;;;;;;;;;39.00;35.00;;;;;;;;5058369;28;9081;-73
2020/12/22 23:57:31;;;;;;;;;51.00;41.00;;;;;;;;5061199;28;11569;-73
2020/12/22 23:59:57;;;;;;;;;50.67;40.33;;;;;;;;5058900;28;8849;-73
